Time;durP1;ratioP1;P1;durP2;ratioP2;P2;SDS_P1;SDS_P2;PMS_P1;PMS_P2;Temp;Humidity;BMP_temperature;BMP_pressure;BME280_temperature;BME280_humidity;BME280_pressure;Samples;Min_cycle;Max_cycle;Signal;HPM_P1;HPM_P2
2022/12/01 00:00:18;;;;;;;46.65;23.00;;;;;;;0.59;86.28;96487.81;2040836;29;20063;-59
2022/12/01 00:01:19;;;;;;;48.25;24.42;;;;;;;0.40;86.43;96473.31;2041092;29;20051;-59
2022/12/01 00:02:20;;;;;;;45.10;23.98;;;;;;;0.57;86.77;96486.97;2041513;29;20067;-60
2022/12/01 00:03:21;;;;;;;47.50;23.50;;;;;;;0.51;86.90;96474.19;2040949;29;20412;-60
2022/12/01 00:04:22;;;;;;;44.53;23.23;;;;;;;0.61;86.44;96485.25;2040835;29;20047;-59
2022/12/01 00:05:23;;;;;;;45.38;24.73;;;;;;;0.52;87.02;96490.38;2041825;29;20510;-59
2022/12/01 00:06:24;;;;;;;46.97;24.90;;;;;;;0.49;86.66;96475.91;2043343;29;20048;-59
2022/12/01 00:07:26;;;;;;;46.30;24.02;;;;;;;0.49;87.00;96490.38;2042804;29;20047;-59
2022/12/01 00:08:27;;;;;;;45.33;24.40;;;;;;;0.50;87.05;96481.84;2043516;29;20047;-59
2022/12/01 00:10:47;;;;;;;44.70;23.10;;;;;;;0.53;87.53;96476.72;2043239;29;20051;-60
2022/12/01 00:11:48;;;;;;;48.95;24.95;;;;;;;0.50;87.69;96476.75;2043569;28;20063;-59
2022/12/01 00:12:50;;;;;;;47.15;24.13;;;;;;;0.52;87.48;96481.00;2043135;29;20528;-59
2022/12/01 00:13:51;;;;;;;46.45;24.58;;;;;;;0.56;87.91;96474.16;2043156;29;20043;-58
2022/12/01 00:14:59;;;;;;;49.72;24.73;;;;;;;0.60;87.70;96471.63;2043028;29;20048;-58
2022/12/01 00:16:14;;;;;;;47.22;23.30;;;;;;;0.68;86.97;96468.22;2042382;29;20067;-58
2022/12/01 00:17:15;;;;;;;43.58;23.33;;;;;;;0.71;87.25;96471.63;2043048;29;20082;-59
2022/12/01 00:18:16;;;;;;;48.42;24.25;;;;;;;0.62;86.78;96452.03;2043233;29;20542;-58
2022/12/01 00:19:17;;;;;;;47.63;25.65;;;;;;;0.46;87.06;96445.22;2042946;29;20058;-58
2022/12/01 00:20:18;;;;;;;45.45;24.02;;;;;;;0.57;86.96;96458.84;2042840;29;20047;-59
2022/12/01 00:21:21;;;;;;;46.03;23.70;;;;;;;0.57;87.21;96448.63;2042229;29;20055;-58
2022/12/01 00:22:22;;;;;;;49.05;25.23;;;;;;;0.60;87.38;96465.66;2042295;29;20511;-59
2022/12/01 00:23:23;;;;;;;51.85;25.42;;;;;;;0.62;87.98;96466.53;2042491;29;20063;-58
2022/12/01 00:24:24;;;;;;;49.17;24.65;;;;;;;0.64;87.90;96465.66;2042491;29;20073;-58
2022/12/01 00:25:25;;;;;;;48.88;25.70;;;;;;;0.61;87.62;96460.53;2042953;29;20051;-59
2022/12/01 00:26:26;;;;;;;50.80;25.45;;;;;;;0.63;87.57;96466.50;2042667;29;20056;-58
2022/12/01 00:27:27;;;;;;;48.15;24.23;;;;;;;0.56;87.90;96462.28;2042815;29;20051;-58
2022/12/01 00:28:28;;;;;;;53.15;25.45;;;;;;;0.56;87.69;96466.50;2042506;29;20064;-59
2022/12/01 00:29:29;;;;;;;50.85;24.90;;;;;;;0.59;88.06;96469.09;2042584;29;20056;-58
2022/12/01 00:30:31;;;;;;;52.03;26.23;;;;;;;0.58;87.74;96464.81;2042728;29;20389;-58
2022/12/01 00:31:32;;;;;;;48.40;24.17;;;;;;;0.64;87.97;96467.34;2042919;29;20060;-59
2022/12/01 00:32:33;;;;;;;50.70;25.45;;;;;;;0.60;87.55;96463.09;2042799;29;20059;-59
2022/12/01 00:33:34;;;;;;;50.67;25.88;;;;;;;0.54;87.68;96458.84;2042902;29;20150;-59
2022/12/01 00:34:36;;;;;;;46.15;24.60;;;;;;;0.65;87.80;96458.84;2042744;29;20060;-59
2022/12/01 00:35:37;;;;;;;48.35;24.65;;;;;;;0.65;88.35;96464.81;2042217;29;20064;-59
2022/12/01 00:36:39;;;;;;;52.72;25.67;;;;;;;0.61;88.02;96470.75;2043313;29;20043;-59
2022/12/01 00:37:40;;;;;;;51.58;24.48;;;;;;;0.66;88.45;96458.81;2042756;29;20060;-59
2022/12/01 00:38:41;;;;;;;50.60;25.75;;;;;;;0.62;87.83;96467.38;2042923;29;20067;-59
2022/12/01 00:39:42;;;;;;;47.60;25.10;;;;;;;0.61;88.18;96463.09;2042274;29;20360;-59
2022/12/01 00:40:43;;;;;;;48.40;25.10;;;;;;;0.56;88.29;96472.50;2042628;29;20063;-59
2022/12/01 00:41:44;;;;;;;55.10;26.83;;;;;;;0.60;88.87;96471.63;2042378;29;20063;-59
2022/12/01 00:42:45;;;;;;;52.03;26.05;;;;;;;0.60;88.58;96478.44;2042623;29;20502;-59
2022/12/01 00:43:46;;;;;;;52.35;24.90;;;;;;;0.63;88.98;96469.06;2042818;29;20054;-59
2022/12/01 00:44:47;;;;;;;49.03;25.40;;;;;;;0.63;88.70;96474.16;2042873;29;20050;-59
2022/12/01 00:45:49;;;;;;;52.25;26.35;;;;;;;0.60;88.44;96469.06;2042542;29;20071;-59
2022/12/01 00:46:50;;;;;;;50.17;24.88;;;;;;;0.62;89.01;96471.63;2042765;29;20066;-59
2022/12/01 00:47:51;;;;;;;50.25;26.15;;;;;;;0.71;88.47;96471.63;2042804;29;20047;-59
2022/12/01 00:48:52;;;;;;;55.38;27.17;;;;;;;0.71;88.07;96468.22;2042505;29;20051;-59
2022/12/01 00:49:54;;;;;;;50.55;25.80;;;;;;;0.76;88.16;96475.03;2042632;29;20078;-59
2022/12/01 00:50:55;;;;;;;48.85;25.92;;;;;;;0.75;88.21;96473.31;2042874;29;20043;-59
2022/12/01 00:51:56;;;;;;;53.88;26.13;;;;;;;0.69;88.56;96473.31;2042112;29;20055;-60
2022/12/01 00:52:57;;;;;;;52.33;25.98;;;;;;;0.65;88.90;96474.19;2042802;29;20048;-59
2022/12/01 00:53:58;;;;;;;49.58;25.85;;;;;;;0.70;88.93;96477.59;2042687;29;20399;-60
2022/12/01 00:54:59;;;;;;;60.97;26.98;;;;;;;0.68;88.81;96475.88;2042354;29;20071;-60
2022/12/01 00:56:00;;;;;;;51.88;25.48;;;;;;;0.70;88.70;96471.63;2042159;29;20055;-59
2022/12/01 00:57:02;;;;;;;54.60;26.80;;;;;;;0.65;88.53;96459.69;2042410;29;20500;-55
2022/12/01 00:58:03;;;;;;;52.20;27.38;;;;;;;0.66;88.19;96474.16;2042174;29;20047;-55
2022/12/01 00:59:04;;;;;;;55.03;25.85;;;;;;;0.58;88.68;96475.88;2042159;29;20067;-54
2022/12/01 01:00:06;;;;;;;54.58;27.13;;;;;;;0.59;88.45;96480.16;2042399;29;20459;-54
2022/12/01 01:01:07;;;;;;;53.08;26.17;;;;;;;0.60;88.83;96478.44;2042666;29;20066;-55
2022/12/01 01:02:08;;;;;;;51.28;25.88;;;;;;;0.64;88.90;96473.34;2042164;29;20055;-61
2022/12/01 01:03:09;;;;;;;47.90;23.42;;;;;;;0.55;88.60;96455.44;2042378;29;20484;-62
2022/12/01 01:04:11;;;;;;;51.38;25.42;;;;;;;0.68;88.64;96478.44;2042666;29;20117;-61
2022/12/01 01:05:12;;;;;;;52.88;24.75;;;;;;;0.52;88.81;96477.59;2042494;29;20058;-61
2022/12/01 01:06:13;;;;;;;63.08;27.27;;;;;;;0.51;88.97;96480.97;2042627;29;20043;-61
2022/12/01 01:07:14;;;;;;;53.17;26.70;;;;;;;0.54;89.30;96481.00;2042880;28;20051;-61
2022/12/01 01:08:15;;;;;;;56.33;27.15;;;;;;;0.50;89.42;96482.69;2042817;29;20499;-61
2022/12/01 01:09:16;;;;;;;55.13;25.83;;;;;;;0.54;89.36;96478.47;2042030;29;20058;-62
2022/12/01 01:10:17;;;;;;;55.40;26.05;;;;;;;0.59;89.30;96480.16;2042315;29;20063;-61
2022/12/01 01:11:18;;;;;;;56.05;26.55;;;;;;;0.54;89.26;96473.34;2042202;29;20063;-61
2022/12/01 01:12:19;;;;;;;61.55;28.05;;;;;;;0.50;89.28;96476.75;2042553;29;20404;-61
2022/12/01 01:13:20;;;;;;;59.95;25.60;;;;;;;0.44;89.40;96472.47;2042279;29;20129;-61
2022/12/01 01:14:22;;;;;;;56.25;26.73;;;;;;;0.53;89.43;96482.69;2042359;29;20064;-61
2022/12/01 01:15:24;;;;;;;59.55;27.65;;;;;;;0.52;89.42;96478.44;2042010;29;20147;-61
2022/12/01 01:16:25;;;;;;;56.38;27.13;;;;;;;0.47;89.30;96482.69;2042369;29;20047;-59
2022/12/01 01:17:26;;;;;;;52.45;25.90;;;;;;;0.48;89.75;96470.78;2041488;29;20071;-58
2022/12/01 01:18:27;;;;;;;48.50;24.95;;;;;;;0.46;89.31;96460.56;2042425;29;20070;-58
2022/12/01 01:19:28;;;;;;;54.30;25.38;;;;;;;0.52;89.39;96482.72;2042335;29;20455;-58
2022/12/01 01:20:31;;;;;;;53.97;26.30;;;;;;;0.51;89.21;96476.75;2042426;29;20064;-58
2022/12/01 01:21:33;;;;;;;49.60;24.85;;;;;;;0.48;89.11;96470.78;2042376;29;20411;-59
2022/12/01 01:22:34;;;;;;;50.92;25.73;;;;;;;0.49;89.28;96483.56;2042456;29;20055;-59
2022/12/01 01:23:35;;;;;;;49.58;24.88;;;;;;;0.53;89.21;96476.72;2042265;29;20055;-59
2022/12/01 01:24:36;;;;;;;52.83;25.92;;;;;;;0.51;89.72;96478.44;2042185;29;20052;-60
2022/12/01 01:25:37;;;;;;;54.33;25.20;;;;;;;0.43;89.56;96471.63;2042411;29;20066;-59
2022/12/01 01:26:38;;;;;;;51.80;25.75;;;;;;;0.53;89.19;96481.84;2042491;29;20054;-59
2022/12/01 01:27:39;;;;;;;54.80;25.88;;;;;;;0.49;89.40;96473.34;2042493;29;20059;-59
2022/12/01 01:28:41;;;;;;;53.38;26.73;;;;;;;0.48;89.20;96481.84;2042728;29;20054;-58
2022/12/01 01:29:42;;;;;;;58.42;26.00;;;;;;;0.48;89.13;96479.28;2042393;29;20048;-59
2022/12/01 01:30:43;;;;;;;54.15;25.98;;;;;;;0.49;89.64;96482.72;2042655;29;20059;-59
2022/12/01 01:31:44;;;;;;;51.10;25.63;;;;;;;0.54;89.42;96474.19;2041965;29;20056;-59
2022/12/01 01:32:45;;;;;;;48.67;24.83;;;;;;;0.52;89.18;96475.03;2042588;29;20048;-59
2022/12/01 01:33:47;;;;;;;54.50;25.27;;;;;;;0.46;88.93;96449.50;2041828;29;20456;-60
2022/12/01 01:34:48;;;;;;;55.08;25.98;;;;;;;0.55;88.45;96472.47;2042158;29;20055;-59
2022/12/01 01:35:49;;;;;;;54.08;26.42;;;;;;;0.54;88.61;96479.31;2042104;29;20081;-59
2022/12/01 01:36:50;;;;;;;52.25;26.00;;;;;;;0.46;88.33;96457.16;2042497;29;20059;-61
2022/12/01 01:37:51;;;;;;;52.35;25.42;;;;;;;0.44;88.73;96475.88;2042473;29;20039;-61
2022/12/01 01:38:53;;;;;;;55.53;27.02;;;;;;;0.47;88.72;96474.19;2042282;29;20412;-61
2022/12/01 01:39:55;;;;;;;57.35;27.00;;;;;;;0.50;89.07;96480.13;2042105;29;20074;-61
2022/12/01 01:40:56;;;;;;;52.85;26.00;;;;;;;0.54;89.15;96474.19;2042082;29;20063;-61
2022/12/01 01:41:57;;;;;;;50.17;24.08;;;;;;;0.48;88.71;96476.72;2042376;29;20349;-55
2022/12/01 01:42:58;;;;;;;52.33;25.48;;;;;;;0.48;88.93;96478.44;2042096;29;20055;-55
2022/12/01 01:44:01;;;;;;;52.60;25.83;;;;;;;0.49;88.98;96480.16;2041760;29;20062;-55
2022/12/01 01:45:03;;;;;;;53.67;25.80;;;;;;;0.39;88.80;96464.81;2042391;29;20393;-55
2022/12/01 01:46:04;;;;;;;49.83;24.45;;;;;;;0.49;88.82;96475.91;2042196;29;20472;-54
2022/12/01 01:47:05;;;;;;;50.75;23.90;;;;;;;0.43;89.16;96473.34;2041757;29;20059;-59
2022/12/01 01:48:07;;;;;;;52.15;25.67;;;;;;;0.49;88.72;96478.44;2041933;29;20519;-59
2022/12/01 01:49:10;;;;;;;48.97;24.13;;;;;;;0.42;88.58;96469.06;2033900;29;20066;-60
2022/12/01 01:50:12;;;;;;;51.88;26.10;;;;;;;0.48;88.65;96479.28;2033986;29;20496;-59
2022/12/01 01:51:13;;;;;;;56.30;26.40;;;;;;;0.46;88.48;96478.44;2034199;29;20056;-59
2022/12/01 01:52:14;;;;;;;53.25;24.88;;;;;;;0.52;88.56;96485.25;2025753;29;20057;-60
2022/12/01 01:53:15;;;;;;;49.92;25.65;;;;;;;0.55;88.71;96480.16;2033454;29;20059;-59
2022/12/01 01:54:27;;;;;;;49.85;25.63;;;;;;;0.52;88.62;96482.72;2048976;29;20063;-59
2022/12/01 01:55:29;;;;;;;59.70;26.77;;;;;;;0.48;88.83;96474.16;2041776;29;20399;-60
2022/12/01 01:56:30;;;;;;;52.30;26.23;;;;;;;0.50;88.52;96477.59;2034631;29;20067;-60
2022/12/01 01:57:32;;;;;;;51.55;24.77;;;;;;;0.32;88.66;96454.59;2041057;29;20067;-59
2022/12/01 01:58:33;;;;;;;54.63;25.35;;;;;;;0.35;88.92;96473.34;2041370;29;20052;-60
2022/12/01 01:59:37;;;;;;;53.47;24.02;;;;;;;0.34;88.90;96471.63;2033238;29;20535;-60
2022/12/01 02:00:39;;;;;;;53.97;26.95;;;;;;;0.36;88.66;96469.06;2034018;29;20059;-60
2022/12/01 02:01:40;;;;;;;54.50;26.83;;;;;;;0.44;88.37;96482.72;2033749;29;20051;-60
2022/12/01 02:02:45;;;;;;;53.17;26.77;;;;;;;0.36;88.80;96480.16;2041505;29;20070;-60
2022/12/01 02:03:46;;;;;;;49.55;24.98;;;;;;;0.32;89.10;96458.00;2042226;29;20051;-60
2022/12/01 02:04:49;;;;;;;54.78;26.25;;;;;;;0.43;89.13;96475.91;2042036;29;20078;-59
2022/12/01 02:05:50;;;;;;;58.33;27.00;;;;;;;0.41;89.02;96485.25;2041659;29;20054;-60
2022/12/01 02:06:51;;;;;;;58.00;26.70;;;;;;;0.47;89.03;96474.19;2041260;29;20086;-59
2022/12/01 02:07:53;;;;;;;52.00;24.50;;;;;;;0.51;89.14;96480.97;2041483;29;20063;-60
2022/12/01 02:08:54;;;;;;;56.97;26.95;;;;;;;0.45;89.56;96474.19;2026079;29;20126;-60
2022/12/01 02:09:56;;;;;;;55.40;26.67;;;;;;;0.47;89.19;96471.63;2033914;29;20040;-60
2022/12/01 02:11:32;;;;;;;54.33;27.00;;;;;;;0.44;89.05;96454.59;2041046;29;20051;-60
2022/12/01 02:12:41;;;;;;;54.63;26.65;;;;;;;0.47;89.33;96471.63;2014152;29;20053;-59
2022/12/01 02:14:05;;;;;;;56.20;26.80;;;;;;;0.44;89.13;96472.47;2009823;29;20057;-60
2022/12/01 02:15:13;;;;;;;54.05;26.23;;;;;;;0.38;89.15;96464.81;2025027;29;20051;-60
2022/12/01 02:16:54;;;;;;;58.95;27.25;;;;;;;0.32;89.67;96470.78;2036575;29;20051;-59
2022/12/01 02:18:11;;;;;;;56.30;26.45;;;;;;;0.27;89.84;96467.38;2042018;29;20047;-59
2022/12/01 02:19:31;;;;;;;56.75;26.92;;;;;;;0.36;89.91;96467.38;2041135;29;20099;-59
2022/12/01 02:20:44;;;;;;;53.70;25.92;;;;;;;0.38;90.03;96462.28;2041071;29;20044;-60
2022/12/01 02:21:54;;;;;;;59.63;26.95;;;;;;;0.40;89.62;96463.97;2040775;29;20044;-60
2022/12/01 02:23:34;;;;;;;52.45;25.80;;;;;;;0.31;90.14;96463.97;2040853;29;20097;-60
2022/12/01 02:24:50;;;;;;;62.83;28.05;;;;;;;0.32;90.36;96463.13;2038794;29;20380;-59
2022/12/01 02:26:22;;;;;;;59.60;28.25;;;;;;;0.33;90.40;96462.25;2041882;29;20395;-60
2022/12/01 02:27:48;;;;;;;61.20;27.23;;;;;;;0.33;89.90;96463.97;2042215;29;20043;-60
2022/12/01 02:29:10;;;;;;;65.72;28.45;;;;;;;0.35;90.00;96459.72;2041474;29;20503;-60
2022/12/01 02:30:33;;;;;;;56.70;27.00;;;;;;;0.34;89.68;96458.84;2041850;29;20139;-60
2022/12/01 02:31:46;;;;;;;57.13;27.08;;;;;;;0.25;90.13;96450.34;2041988;29;20036;-59
2022/12/01 02:32:49;;;;;;;65.63;28.48;;;;;;;0.29;90.03;96459.69;2041416;29;20058;-60
2022/12/01 02:33:56;;;;;;;65.35;29.30;;;;;;;0.24;89.90;96463.94;2040844;29;20526;-60
2022/12/01 02:35:39;;;;;;;63.80;28.48;;;;;;;0.30;90.33;96461.41;2040830;29;20067;-60
2022/12/01 02:36:49;;;;;;;66.05;29.85;;;;;;;0.34;90.44;96463.09;2039277;29;20051;-60
2022/12/01 02:38:19;;;;;;;63.88;28.13;;;;;;;0.35;90.30;96452.06;2042209;29;20063;-60
2022/12/01 02:39:27;;;;;;;63.30;28.67;;;;;;;0.15;90.05;96435.00;2041678;29;20047;-60
2022/12/01 02:40:31;;;;;;;76.50;31.40;;;;;;;0.26;90.43;96457.16;2038169;29;20104;-60
2022/12/01 02:41:41;;;;;;;74.03;31.23;;;;;;;0.28;90.20;96455.44;2032769;29;20056;-60
2022/12/01 02:42:51;;;;;;;69.05;30.60;;;;;;;0.21;90.43;96441.81;2012898;29;20057;-60
2022/12/01 02:44:12;;;;;;;61.92;28.67;;;;;;;0.36;90.67;96461.41;2027698;29;20053;-59
2022/12/01 02:45:17;;;;;;;72.82;30.52;;;;;;;0.18;90.54;96439.25;2041045;29;20048;-60
2022/12/01 02:46:43;;;;;;;71.28;30.60;;;;;;;0.28;90.49;96455.44;2041100;29;20048;-60
2022/12/01 02:47:44;;;;;;;71.88;30.90;;;;;;;0.32;90.89;96457.13;2036714;29;20523;-60
2022/12/01 02:48:47;;;;;;;75.25;30.65;;;;;;;0.26;90.86;96457.16;2033792;29;20056;-60
2022/12/01 02:49:49;;;;;;;81.93;32.08;;;;;;;0.25;91.02;96461.41;2025513;29;20063;-60
2022/12/01 02:50:50;;;;;;;78.03;34.17;;;;;;;0.22;90.87;96462.25;2025499;29;20053;-60
2022/12/01 02:51:51;;;;;;;79.25;33.20;;;;;;;0.09;91.26;96440.13;2041333;29;20051;-55
2022/12/01 02:52:53;;;;;;;83.80;32.83;;;;;;;0.19;91.26;96457.16;2041403;29;20511;-55
2022/12/01 02:53:55;;;;;;;83.95;34.17;;;;;;;0.29;91.24;96459.69;2017928;29;20045;-55
2022/12/01 02:54:56;;;;;;;80.47;32.65;;;;;;;0.25;90.81;96463.13;2017762;29;20072;-55
2022/12/01 02:55:57;;;;;;;86.30;34.10;;;;;;;0.22;91.27;96441.81;2033064;29;20056;-55
2022/12/01 02:56:58;;;;;;;77.38;32.92;;;;;;;0.31;90.89;96461.41;2041546;29;20060;-63
2022/12/01 02:57:59;;;;;;;77.88;32.72;;;;;;;0.35;91.40;96468.22;2041379;29;20063;-64
2022/12/01 02:59:00;;;;;;;82.60;32.95;;;;;;;0.39;91.20;96463.97;2041534;29;20067;-63
2022/12/01 03:00:02;;;;;;;89.55;35.95;;;;;;;0.32;91.20;96463.13;2041803;29;20052;-64
2022/12/01 03:01:41;;;;;;;83.53;33.50;;;;;;;0.43;91.15;96468.25;2041045;29;20039;-65
2022/12/01 03:03:04;;;;;;;74.55;32.65;;;;;;;0.41;90.57;96462.28;2028932;29;20484;-63
2022/12/01 03:04:29;;;;;;;79.13;32.50;;;;;;;0.44;90.80;96460.56;2036010;29;20205;-64
2022/12/01 03:05:38;;;;;;;82.15;31.58;;;;;;;0.42;90.55;96461.41;2040328;29;20528;-63
2022/12/01 03:07:04;;;;;;;82.70;32.90;;;;;;;0.46;90.74;96449.50;2040668;29;20062;-64
2022/12/01 03:08:22;;;;;;;77.78;30.80;;;;;;;0.27;90.64;96434.16;2041404;29;20039;-64
2022/12/01 03:09:37;;;;;;;82.07;30.83;;;;;;;0.37;90.62;96440.09;2040673;29;20071;-64
2022/12/01 03:10:50;;;;;;;79.82;30.88;;;;;;;0.46;90.87;96437.56;2036842;29;20455;-64
2022/12/01 03:12:02;;;;;;;82.43;32.25;;;;;;;0.49;90.50;96429.91;2035161;29;20052;-65
2022/12/01 03:13:20;;;;;;;79.43;30.65;;;;;;;0.54;90.51;96435.84;2042587;29;20056;-64
2022/12/01 03:14:36;;;;;;;81.80;32.03;;;;;;;0.58;90.28;96434.13;2040746;29;20483;-64
2022/12/01 03:15:53;;;;;;;81.80;31.70;;;;;;;0.57;89.94;96435.84;2040687;29;20404;-64
2022/12/01 03:16:54;;;;;;;77.35;31.05;;;;;;;0.60;90.23;96435.00;2040604;29;20059;-63
2022/12/01 03:18:19;;;;;;;81.82;31.10;;;;;;;0.52;90.48;96440.09;2040758;29;20059;-65
2022/12/01 03:19:31;;;;;;;74.55;32.05;;;;;;;0.48;90.76;96438.41;2048511;29;20059;-63
2022/12/01 03:20:36;;;;;;;90.60;34.03;;;;;;;0.39;90.64;96446.94;2041164;29;20051;-62
2022/12/01 03:21:40;;;;;;;82.50;32.25;;;;;;;0.32;90.98;96427.34;2033619;29;20060;-64
2022/12/01 03:22:45;;;;;;;79.22;32.88;;;;;;;0.40;91.02;96437.53;2040465;29;20533;-64
2022/12/01 03:23:51;;;;;;;80.90;31.58;;;;;;;0.33;91.05;96438.44;2041368;29;20499;-64
2022/12/01 03:24:52;;;;;;;78.20;33.03;;;;;;;0.36;91.04;96440.97;2026205;29;20052;-64
2022/12/01 03:25:54;;;;;;;86.65;33.47;;;;;;;0.47;90.85;96444.38;2025591;29;20416;-64
2022/12/01 03:26:56;;;;;;;81.50;34.30;;;;;;;0.43;91.02;96460.56;2041017;29;20495;-63
2022/12/01 03:27:57;;;;;;;82.22;33.58;;;;;;;0.48;91.27;96451.16;2041081;29;20062;-64
2022/12/01 03:29:09;;;;;;;78.32;32.90;;;;;;;0.40;90.84;96435.88;2033191;29;20067;-64
2022/12/01 03:30:11;;;;;;;79.47;34.13;;;;;;;0.54;90.89;96447.78;2040647;29;20055;-64
2022/12/01 03:31:16;;;;;;;79.50;32.90;;;;;;;0.51;90.91;96440.97;2049212;29;20043;-64
2022/12/01 03:32:26;;;;;;;79.35;33.03;;;;;;;0.37;90.45;96425.63;2040513;29;20055;-64
2022/12/01 03:33:35;;;;;;;79.45;32.15;;;;;;;0.45;90.85;96448.63;2035935;29;20059;-63
2022/12/01 03:34:49;;;;;;;79.45;33.28;;;;;;;0.46;90.89;96444.38;2041017;29;20514;-64
2022/12/01 03:35:56;;;;;;;78.70;31.15;;;;;;;0.40;91.46;96445.22;2040140;29;20062;-64
2022/12/01 03:37:03;;;;;;;81.68;33.53;;;;;;;0.47;91.23;96440.97;2041919;29;20059;-58
2022/12/01 03:38:13;;;;;;;77.63;32.55;;;;;;;0.46;91.09;96436.72;2041064;29;20067;-58
2022/12/01 03:39:18;;;;;;;77.55;31.95;;;;;;;0.46;91.18;96421.38;2026972;29;20362;-59
2022/12/01 03:40:21;;;;;;;76.93;30.40;;;;;;;0.63;90.66;96437.53;2027095;29;20056;-58
2022/12/01 03:41:24;;;;;;;73.63;31.58;;;;;;;0.63;90.26;96434.97;2027376;29;20064;-58
2022/12/01 03:42:37;;;;;;;71.97;31.05;;;;;;;0.48;90.88;96423.06;2035133;29;20428;-58
2022/12/01 03:43:40;;;;;;;74.80;31.15;;;;;;;0.53;90.86;96439.25;2042718;29;20043;-58
2022/12/01 03:44:51;;;;;;;70.13;31.60;;;;;;;0.49;91.46;96439.28;2042833;29;20043;-59
2022/12/01 03:46:04;;;;;;;74.75;31.63;;;;;;;0.43;91.24;96446.09;2036295;29;20059;-59
2022/12/01 03:47:08;;;;;;;76.55;30.77;;;;;;;0.49;91.45;96441.81;2042847;29;20040;-58
2022/12/01 03:48:09;;;;;;;74.68;30.25;;;;;;;0.50;91.14;96446.06;2050290;29;20411;-58
2022/12/01 03:49:10;;;;;;;70.25;29.40;;;;;;;0.53;91.81;96446.06;2049977;29;20046;-58
2022/12/01 03:50:12;;;;;;;69.32;30.83;;;;;;;0.59;91.34;96449.47;2042608;29;20056;-59
2022/12/01 03:51:37;;;;;;;75.05;32.63;;;;;;;0.57;91.48;96443.50;2034381;29;20161;-59
2022/12/01 03:52:42;;;;;;;70.38;30.55;;;;;;;0.56;91.17;96444.38;2042959;29;20051;-59
2022/12/01 03:53:47;;;;;;;69.65;29.48;;;;;;;0.55;91.47;96444.38;2042349;29;20427;-58
2022/12/01 03:55:08;;;;;;;70.18;31.15;;;;;;;0.46;91.46;96439.28;2035167;29;20063;-59
2022/12/01 03:56:09;;;;;;;70.85;31.48;;;;;;;0.52;91.21;96445.22;2036705;29;20048;-59
2022/12/01 03:57:12;;;;;;;73.78;31.65;;;;;;;0.60;91.11;96443.50;2034303;29;20505;-59
2022/12/01 03:58:24;;;;;;;68.75;29.98;;;;;;;0.56;90.93;96436.72;2042234;29;20051;-59
2022/12/01 03:59:25;;;;;;;70.95;32.17;;;;;;;0.59;90.99;96448.63;2040537;29;20060;-59
2022/12/01 04:00:27;;;;;;;67.28;28.70;;;;;;;0.53;91.45;96441.81;2043734;29;20059;-58
2022/12/01 04:01:32;;;;;;;75.30;31.90;;;;;;;0.41;91.20;96429.06;2042235;29;20067;-58
2022/12/01 04:02:33;;;;;;;71.90;31.67;;;;;;;0.50;91.51;96446.06;2042347;29;20050;-58
2022/12/01 04:03:34;;;;;;;72.32;31.50;;;;;;;0.44;91.97;96441.81;2042597;29;20047;-59
2022/12/01 04:04:35;;;;;;;71.72;32.10;;;;;;;0.50;91.65;96449.47;2041805;29;20063;-58
2022/12/01 04:05:36;;;;;;;67.65;32.25;;;;;;;0.56;91.63;96446.94;2042899;29;20063;-59
2022/12/01 04:06:38;;;;;;;73.70;32.58;;;;;;;0.62;91.92;96448.63;2042577;29;20060;-59
2022/12/01 04:07:39;;;;;;;73.68;31.88;;;;;;;0.71;91.46;96447.75;2034878;29;20056;-59
2022/12/01 04:08:40;;;;;;;69.47;31.67;;;;;;;0.64;91.20;96454.56;2041966;29;20060;-59
2022/12/01 04:09:41;;;;;;;71.03;32.33;;;;;;;0.60;91.31;96447.78;2042797;29;20526;-59
2022/12/01 04:10:42;;;;;;;76.45;30.88;;;;;;;0.60;91.55;96453.72;2043307;29;20054;-59
2022/12/01 04:13:03;;;;;;;77.18;31.75;;;;;;;0.62;91.50;96452.03;2043230;29;20404;-59
2022/12/01 04:14:04;;;;;;;77.30;31.65;;;;;;;0.65;91.55;96457.13;2042868;29;20060;-59
2022/12/01 04:15:11;;;;;;;82.55;33.45;;;;;;;0.53;91.75;96441.81;2043071;29;20055;-59
2022/12/01 04:16:12;;;;;;;78.80;33.97;;;;;;;0.60;92.07;96455.44;2043111;29;20048;-59
2022/12/01 04:17:13;;;;;;;84.50;32.67;;;;;;;0.66;92.09;96448.59;2042817;29;20051;-54
2022/12/01 04:18:14;;;;;;;80.72;32.63;;;;;;;0.66;91.61;96457.97;2042607;29;20407;-54
2022/12/01 04:19:15;;;;;;;78.93;33.13;;;;;;;0.54;92.02;96443.53;2042866;29;20046;-56
2022/12/01 04:20:16;;;;;;;85.45;34.28;;;;;;;0.60;91.67;96452.88;2043233;29;20044;-55
2022/12/01 04:21:17;;;;;;;80.95;33.08;;;;;;;0.60;91.90;96458.00;2042452;29;20055;-55
2022/12/01 04:22:19;;;;;;;77.90;34.03;;;;;;;0.54;91.95;96453.75;2043037;29;20051;-54
2022/12/01 04:24:39;;;;;;;92.88;34.20;;;;;;;0.62;92.08;96456.31;2042692;29;20083;-55
2022/12/01 04:25:40;;;;;;;82.03;32.95;;;;;;;0.66;92.20;96460.53;2042830;29;20062;-54
2022/12/01 04:26:42;;;;;;;82.13;35.13;;;;;;;0.58;92.24;96450.31;2043028;29;20055;-59
2022/12/01 04:27:43;;;;;;;84.65;34.50;;;;;;;0.54;92.12;96456.31;2042906;29;20063;-59
2022/12/01 04:28:44;;;;;;;83.00;35.08;;;;;;;0.62;92.24;96452.03;2042719;29;20067;-60
2022/12/01 04:29:45;;;;;;;75.90;33.83;;;;;;;0.66;92.09;96447.75;2042758;29;20126;-59
2022/12/01 04:30:46;;;;;;;84.10;34.95;;;;;;;0.61;92.02;96452.03;2042648;29;20056;-59
2022/12/01 04:31:47;;;;;;;86.03;33.97;;;;;;;0.71;92.14;96451.16;2042452;29;20073;-59
2022/12/01 04:32:48;;;;;;;78.50;33.10;;;;;;;0.61;91.74;96436.69;2042876;29;20472;-59
2022/12/01 04:33:50;;;;;;;88.13;35.65;;;;;;;0.72;92.23;96454.56;2042734;29;20047;-59
2022/12/01 04:34:51;;;;;;;86.53;35.97;;;;;;;0.76;92.22;96454.56;2043218;29;20043;-59
2022/12/01 04:35:56;;;;;;;89.43;37.28;;;;;;;0.72;92.22;96454.56;2042984;29;20228;-59
2022/12/01 04:36:58;;;;;;;79.10;33.50;;;;;;;0.80;92.04;96450.28;2042304;29;20044;-60
2022/12/01 04:37:59;;;;;;;82.65;33.83;;;;;;;0.85;91.27;96448.56;2043168;29;20043;-59
2022/12/01 04:39:00;;;;;;;84.47;35.38;;;;;;;0.66;91.85;96435.81;2042913;29;20048;-60
2022/12/01 04:40:01;;;;;;;82.43;34.95;;;;;;;0.74;91.71;96453.72;2042177;29;20043;-59
2022/12/01 04:41:09;;;;;;;79.28;34.20;;;;;;;0.58;91.76;96440.09;2042130;29;20055;-60
2022/12/01 04:42:10;;;;;;;73.55;33.38;;;;;;;0.70;92.07;96444.34;2043043;29;20388;-59
2022/12/01 04:43:11;;;;;;;81.85;35.80;;;;;;;0.69;91.60;96446.91;2042510;29;20051;-59
2022/12/01 04:44:12;;;;;;;78.38;33.53;;;;;;;0.72;91.71;96452.00;2042781;29;20515;-59
2022/12/01 04:45:14;;;;;;;81.55;34.00;;;;;;;0.68;91.47;96447.78;2042719;29;20063;-60
2022/12/01 04:46:15;;;;;;;81.72;35.40;;;;;;;0.72;91.65;96452.84;2042788;29;20047;-59
2022/12/01 04:47:16;;;;;;;77.45;34.20;;;;;;;0.75;91.84;96447.75;2042519;29;20479;-59
2022/12/01 04:48:17;;;;;;;77.13;33.55;;;;;;;0.73;91.65;96448.63;2042683;29;20059;-59
2022/12/01 04:49:19;;;;;;;82.78;33.67;;;;;;;0.75;91.47;96445.19;2043065;29;20055;-59
2022/12/01 04:50:20;;;;;;;72.63;32.45;;;;;;;0.62;91.69;96446.91;2042633;29;20058;-59
2022/12/01 04:51:21;;;;;;;77.65;33.65;;;;;;;0.64;91.63;96446.91;2041929;29;20070;-60
2022/12/01 04:52:22;;;;;;;79.68;33.70;;;;;;;0.65;92.14;96444.34;2041497;29;20056;-59
2022/12/01 04:53:23;;;;;;;89.00;34.15;;;;;;;0.65;92.06;96443.50;2042704;29;20056;-60
2022/12/01 04:54:25;;;;;;;77.78;34.20;;;;;;;0.63;91.75;96443.50;2042672;29;20086;-59
2022/12/01 04:55:26;;;;;;;83.28;36.10;;;;;;;0.63;92.22;96443.50;2042301;29;20399;-59
2022/12/01 04:56:27;;;;;;;81.45;35.80;;;;;;;0.60;92.32;96445.22;2042811;29;20051;-59
2022/12/01 04:57:28;;;;;;;79.80;34.25;;;;;;;0.61;92.21;96447.75;2042513;29;20056;-59
2022/12/01 04:58:30;;;;;;;78.25;33.95;;;;;;;0.65;92.20;96449.47;2042244;29;20051;-60
2022/12/01 04:59:31;;;;;;;77.18;33.65;;;;;;;0.62;92.22;96449.47;2042714;29;20066;-59
2022/12/01 05:00:32;;;;;;;81.82;35.10;;;;;;;0.61;91.66;96445.19;2042372;29;20410;-59
2022/12/01 05:01:33;;;;;;;72.95;33.63;;;;;;;0.58;92.02;96450.31;2042037;29;20066;-59
2022/12/01 05:02:34;;;;;;;83.80;36.05;;;;;;;0.57;92.23;96450.34;2042628;29;20059;-59
2022/12/01 05:03:39;;;;;;;74.63;32.72;;;;;;;0.55;92.37;96450.31;2042667;29;20143;-59
2022/12/01 05:04:40;;;;;;;78.43;33.85;;;;;;;0.68;92.30;96450.31;2042566;29;20062;-59